Airfield :
LOGIN :

Register | Disclaimer

   EN    FR    IT 

 










Legend :    VFR   Marginal VFR   IFR   Intensive IFR   Very Intensive IFR
Visi :
Ceiling :
>= 8 km
>= 3000ft
5 to 8 km
1000 to 3000 ft
1500m to 5 km
500 to 1000 ft
800 to 1500m
200 to 500 ft
< 800m
< 200 ft
Symbols :   Thunderstorms  Fog  Heavy snow  Heavy precipitations  Wind > 20 kt
SIGMETs :     Misc.  Thunderstorms  Icing  Turbulence  Mountain Waves  Volcanic Ashes







- Airport Elevation : 72 ft
- IATA code : UDE


EHVK - Volkel Airbase

CURRENT METAR :
  • 191655Z AUTO 27002KT 9999 BKN066 BKN083 14/11 Q1019 BLU

EXPIRED METARs :
  • 191625Z AUTO 26003KT 9999 OVC082 15/11 Q1019 BLU
  • 191555Z AUTO 30001KT 9999 SCT029 BKN032 OVC066 15/12 Q1019 BLU
  • 191525Z AUTO VRB01KT 9999 FEW034 OVC073 16/11 Q1019 BLU
  • 191455Z AUTO VRB02KT 9999 FEW210 16/10 Q1018 BLU
  • 191431Z AUTO VRB03KT 9999 FEW027 SCT320 16/10 Q1019 BLU
  • 191428Z AUTO VRB03KT 9999 FEW320 16/10 Q1019 BLU 33003KT 9999 FEW024
  • 191357Z AUTO 30003KT 300V030 9999 FEW020 16/11 Q1018 BLU 33003KT 9999 SCT022

TAF TAF EHVK
Valid from the 19 at 17:00 until the 20 at 05:00 UTC


191650Z 1917/2005 26004KT 9999 SCT025
TEMPO 1917/1920 FEW020CB BKN025
PROB30 2002/2005 3000 BR
No reported NOTAMs for that airfield.



MET'MAP, your aeronautical weather chart ! - Copyright ORBIFLY December 2007 - Disclaimer

ORBIFLY MET'MAP TEAM :

Programming & Development : Alexandra Zaïnal
Concept & Development : Baudouin d'Aumeries
Co-Development & Prog : Marc-Olivier Méhu
Technical & hardware support : Manuel Goepfert

Contact : metmap@orbifly.com




SOURCES & CREDITS :

   NOAA